Griddlers

Vá diretamente à ID do puzzle

Selecione o puzzle por:
Resolvidos Question organizar por
Mostrar mais filtros >>>
Resultado: 8770 de 8770
puzzles por página
Página nº de 439
ID Descrição Autor Data Tamanho Pontos Popularidade Tempo Médio Resolvidos
28714 Minimalism: Candlestick twoznia 08-12-2005 5x5x2 f 10 25,80% 0:00:09
28688 Minimalism: Triangle twoznia 07-12-2005 5x5x2 f 15 30,50% 0:00:08
28653 Minimalism: Happy Student twoznia 06-12-2005 5x5x2 f 10 28,48% 0:00:09
28574 Minimalism: Sigma twoznia 04-12-2005 5x5x2 f 13 33,00% 0:00:06
28527 Minimalism: Bat twoznia 03-12-2005 5x5x2 f 4 43,36% 0:00:16
28526 Simple Heart vonnizen 03-12-2005 11x11x2 f 174 50,96% 0:01:54
28489 Alien zomer 02-12-2005 10x10x2 f 73 51,17% 0:01:22
28488 Hedgehog daelyn 01-12-2005 5x5x2 t 12 53,21% 0:00:29
28487 Minimalism: Baseball Home twoznia 01-12-2005 5x5x2 f 27 27,96% 0:00:08
28421 Minimalism: Turtle twoznia 30-11-2005 5x5x2 f 8 40,57% 0:00:11
28414 Mouse hayrett 30-11-2005 13x20x2 t 2.705 55,89% 0:04:18
28392 Minimalism: Ladder twoznia 29-11-2005 5x5x2 f 12 33,95% 0:00:05
28391 Weight Lifting zomer 29-11-2005 10x10x2 f 55 45,74% 0:01:15
28354 Minimalism: House twoznia 28-11-2005 5x5x2 f 3 26,66% 0:00:08
28353 Cemetery at Night op1 28-11-2005 10x10x2 f 47 57,30% 0:01:12
28351 Simple Flower dramaqueen 28-11-2005 15x15x2 f 759 52,26% 0:01:41
28350 Ride Safely zomer 28-11-2005 15x15x2 f 2.454 55,18% 0:06:59
28331 Minimalism: Castle twoznia 27-11-2005 5x5x2 f 3 32,02% 0:00:06
28330 Key GuelphGryphon 27-11-2005 6x13x2 f 24 43,53% 0:00:47
28328 Food Mill zomer 27-11-2005 10x10x2 f 286 46,61% 0:00:50
Resultado: 8770 de 8770
puzzles por página
Página nº de 439